x

Portlock Bank- 76nm Ene Of Kodiak, Ak (46080) Wave Buoy

3:50pm - Sat 25th Oct 2014 All times are AKDT. -8 hours from GMT.

  • Sig Wave height 6.6ft
  • Peak Period 7s
  • Average Period 5s
  • Wind
    22mph, 27mph gusts
  • Sea Temp 46°f
  • Air Temp 44°f
  • Sea Pressure 1008.6mb
  • Portlock Bank- 76nm Ene Of Kodiak, Ak
  • Portlock Bank- 76nm Ene Of Kodiak, Ak

More Historic Weather Station data

Upgrade to MSW Pro to gain access to the past 30 days of data for over 8000 Wavebouys and Weather Stations around the globe.

Join Pro

Comparision Forecast

View Surf forecast
   
Sat 10/25 3:50pm 6.5ft 7s 5s 22 27 mph 1008.6mb 46f 44f
2:50pm 6ft 7s 5s 22 27 mph 1009mb 46f 44f
1:50pm 6ft 7s 5s 18 22 mph 1009.4mb 46f 44f
12:50pm 5ft 8s 6s 16 20 mph 1009.5mb 46f 44f
11:50am 6ft 7s 6s 13 16 mph 1009.7mb 47f 43f
10:50am 6.5ft 7s 5s 13 16 mph 1009.6mb 46f 43f
9:50am 6ft 7s 5s 13 16 mph 1009.7mb 46f 43f
8:50am 7ft 7s 5s 16 20 mph 1009.6mb 46f 43f
7:50am 7ft 7s 5s 16 20 mph 1009.8mb 47f 44f
6:50am 7ft 7s 5s 16 20 mph 1009.7mb 47f 43f
5:50am 7ft 7s 5s 20 25 mph 1009.5mb 47f 43f
4:50am 7ft 8s 5s 20 25 mph 1009.8mb 47f 43f
3:50am 6.5ft 7s 5s 20 22 mph 1009.9mb 47f 44f
2:50am 7.5ft 8s 6s 18 20 mph 1009.9mb 46f 44f
1:50am 6ft 7s 5s 20 25 mph 1009.8mb 46f 44f
12:50am 6ft 7s 6s 18 22 mph 1010.1mb 47f 44f
Fri 10/24 11:50pm 6.5ft 8s 6s 18 20 mph 1010.3mb 47f 43f
10:50pm 7ft 7s 6s 20 25 mph 1010.1mb 46f 43f
9:50pm 6ft 6s 5s 22 25 mph 1010.1mb 46f 43f
8:50pm 4.5ft 4s 4s 20 25 mph 1009.8mb 46f 44f
7:50pm 4ft 4s 4s 18 20 mph 1009.7mb 47f 44f
6:50pm 4.5ft 4s 4s 16 20 mph 1009.2mb 47f 45f
5:50pm 4ft 8s 4s 16 20 mph 1008.9mb 47f 44f
4:50pm 3.5ft 6s 4s 16 18 mph 1008.7mb 47f 45f
3:50pm 4.5ft 6s 5s 16 20 mph 1008.5mb 47f 46f
2:50pm 4.5ft 7s 5s 11 13 mph 1008.5mb 47f 47f
1:50pm 4.5ft 7s 5s 11 13 mph 1008.6mb 47f 47f
12:50pm 5ft 7s 5s 13 16 mph 1008.7mb 47f 46f
11:50am 5ft 7s 6s 13 18 mph 1008.6mb 47f 46f
10:50am 6ft 6s 5s 16 20 mph 1008.3mb 47f 46f
9:50am 6ft 7s 5s 13 16 mph 1008.2mb 46f 45f
8:50am 7ft 8s 5s 16 20 mph 1008.1mb 46f 45f
7:50am 7ft 7s 5s 18 22 mph 1007.9mb 47f 45f
6:50am 7ft 7s 5s 20 22 mph 1007.7mb 47f 44f
5:50am 8ft 8s 5s 18 22 mph 1007.7mb 47f 45f
4:50am 8ft 8s 6s 20 25 mph 1007.4mb 47f 44f
3:50am 8.5ft 8s 5s 22 27 mph 1007.5mb 47f 44f
2:50am 10ft 8s 6s 25 29 mph 1007.5mb 47f 44f
1:50am 9.5ft 9s 6s 25 29 mph 1007.3mb 47f 44f
12:50am 10ft 9s 7s 22 27 mph 1007.4mb 47f 43f
Thu 10/23 11:50pm 12ft 8s 7s 25 31 mph 1007.2mb 47f 43f
10:50pm 10.5ft 9s 7s 25 31 mph 1007.1mb 47f 43f
9:50pm 9ft 9s 6s 25 29 mph 1006.8mb 47f 42f
8:50pm 10ft 8s 6s 22 27 mph 1007.1mb 47f 42f
7:50pm 10ft 8s 6s 25 31 mph 1006.6mb 47f 42f
6:50pm 10ft 8s 6s 25 27 mph 1005.9mb 47f 42f
5:50pm 10ft 8s 6s 25 29 mph 1005.6mb 47f 42f
4:50pm 11ft 8s 6s 27 34 mph 1005.1mb 48f 42f
3:50pm 11ft 9s 6s 25 29 mph 1005.1mb 48f 43f
2:50pm 11ft 9s 6s 25 29 mph 1005.2mb 48f 43f
1:50pm 10.5ft 9s 7s 25 29 mph 1004.7mb 48f 43f
12:50pm 10ft 9s 7s 22 27 mph 1004.3mb 47f 43f
11:50am 10ft 9s 7s 22 29 mph 1003.9mb 47f 44f
10:50am 10.5ft 8s 7s 22 27 mph 1003.4mb 47f 44f
9:50am 10.5ft 9s 6s 22 27 mph 1003mb 47f 44f
8:50am 11ft 8s 6s 22 27 mph 1002.5mb 47f 45f
7:50am 10ft 8s 6s 25 29 mph 1001.7mb 47f 45f
6:50am 12ft 9s 6s 25 29 mph 1001mb 47f 45f
5:50am 11ft 9s 6s 25 29 mph 1000mb 47f 46f
4:50am 12ft 9s 6s 25 29 mph 999.3mb 47f 46f
3:50am 11ft 9s 6s 27 31 mph 998.5mb 48f 46f
2:50am 11.5ft 9s 7s 27 31 mph 997.9mb 48f 45f
1:50am 11ft 9s 7s 25 29 mph 996.9mb 48f 46f
12:50am 12ft 10s 7s 22 27 mph 996.4mb 47f 47f
Wed 10/22 11:50pm 12ft 12s 8s 20 25 mph 995.8mb 47f 47f
9:50pm 13ft 12s 7s 20 25 mph 994.2mb 47f 47f
8:50pm 12ft 12s 7s 20 25 mph 993.3mb 47f 47f
7:50pm 11ft 8s 6s 20 27 mph 992.3mb 47f 47f
6:50pm 10ft 10s 6s 18 20 mph 991.7mb 48f 47f
5:50pm 10ft 10s 6s 18 20 mph 990.8mb 48f 48f
4:50pm 10ft 10s 6s 20 25 mph 990.1mb 48f 48f
3:50pm 9.5ft 10s 6s 20 25 mph 989.4mb 48f 48f
2:50pm 9ft 10s 6s 20 22 mph 988.8mb 48f 48f
1:50pm 8ft 10s 6s 18 22 mph 988.2mb 48f 48f
12:50pm 7.5ft 10s 6s 18 22 mph 987.8mb 47f 48f
11:50am 8ft 9s 6s 16 20 mph 987.3mb 47f 48f
10:50am 8ft 10s 6s 18 22 mph 986.7mb 47f 48f
9:50am 8ft 10s 6s 20 25 mph 986.1mb 47f 47f
8:50am 7.5ft 10s 6s 22 25 mph 985.6mb 47f 47f
7:50am 8ft 9s 5s 20 25 mph 985.2mb 47f 47f
6:50am 8.5ft 10s 6s 22 25 mph 984.7mb 47f 47f
5:50am 8.5ft 10s 6s 18 22 mph 984.6mb 48f 47f
4:50am 8ft 9s 5s 20 22 mph 984.4mb 48f 47f
3:50am 8.5ft 9s 6s 18 22 mph 984.5mb 48f 47f
2:50am 7.5ft 9s 6s 20 25 mph 984.4mb 48f 47f
1:50am 7ft 6s 6s 18 22 mph 984.4mb 48f 47f